sensor_id;sensor_type;location;lat;lon;timestamp;pressure;altitude;pressure_sealevel;temperature;humidity
61128;BME280;47013;42.664;23.242;2023-08-06T00:02:17;92917.53;;;19.16;100.00
61128;BME280;47013;42.664;23.242;2023-08-06T00:04:42;92942.06;;;18.99;100.00
61128;BME280;47013;42.664;23.242;2023-08-06T00:07:08;92931.44;;;18.86;100.00
61128;BME280;47013;42.664;23.242;2023-08-06T00:09:33;92928.78;;;18.92;100.00
61128;BME280;47013;42.664;23.242;2023-08-06T00:11:58;92941.09;;;18.76;100.00
61128;BME280;47013;42.664;23.242;2023-08-06T00:14:24;92941.53;;;18.75;100.00
61128;BME280;47013;42.664;23.242;2023-08-06T00:16:49;92927.47;;;18.88;100.00
61128;BME280;47013;42.664;23.242;2023-08-06T00:19:14;92929.03;;;18.94;100.00
61128;BME280;47013;42.664;23.242;2023-08-06T00:21:40;92938.03;;;18.95;100.00
61128;BME280;47013;42.664;23.242;2023-08-06T00:24:05;92935.69;;;19.08;100.00
61128;BME280;47013;42.664;23.242;2023-08-06T00:26:31;92933.56;;;19.23;100.00
61128;BME280;47013;42.664;23.242;2023-08-06T00:28:56;92928.69;;;19.33;100.00
61128;BME280;47013;42.664;23.242;2023-08-06T00:31:21;92920.59;;;19.24;100.00
61128;BME280;47013;42.664;23.242;2023-08-06T00:33:47;92919.34;;;19.25;100.00
61128;BME280;47013;42.664;23.242;2023-08-06T00:36:12;92896.88;;;19.26;100.00
61128;BME280;47013;42.664;23.242;2023-08-06T00:38:37;92900.88;;;19.25;100.00
61128;BME280;47013;42.664;23.242;2023-08-06T00:41:03;92916.88;;;19.27;100.00
61128;BME280;47013;42.664;23.242;2023-08-06T00:43:28;92919.34;;;19.25;100.00
61128;BME280;47013;42.664;23.242;2023-08-06T00:45:54;92910.84;;;19.23;100.00
61128;BME280;47013;42.664;23.242;2023-08-06T00:48:20;92908.34;;;19.25;100.00
61128;BME280;47013;42.664;23.242;2023-08-06T00:50:45;92909.59;;;19.24;100.00
61128;BME280;47013;42.664;23.242;2023-08-06T00:53:11;92902.84;;;18.99;100.00
61128;BME280;47013;42.664;23.242;2023-08-06T00:55:37;92904.28;;;18.89;100.00
61128;BME280;47013;42.664;23.242;2023-08-06T00:58:02;92900.19;;;19.04;100.00
61128;BME280;47013;42.664;23.242;2023-08-06T01:00:29;92890.81;;;19.17;100.00
61128;BME280;47013;42.664;23.242;2023-08-06T01:02:54;92901.91;;;19.28;100.00
61128;BME280;47013;42.664;23.242;2023-08-06T01:05:21;92888.25;;;19.39;100.00
61128;BME280;47013;42.664;23.242;2023-08-06T01:13:41;92868.44;;;19.61;100.00
61128;BME280;47013;42.664;23.242;2023-08-06T01:16:03;92872.44;;;19.60;100.00
61128;BME280;47013;42.664;23.242;2023-08-06T01:18:30;92874.66;;;19.56;100.00
61128;BME280;47013;42.664;23.242;2023-08-06T01:20:56;92866.84;;;19.49;100.00
61128;BME280;47013;42.664;23.242;2023-08-06T01:23:22;92877.06;;;19.48;100.00
61128;BME280;47013;42.664;23.242;2023-08-06T01:31:18;92869.50;;;19.37;100.00
61128;BME280;47013;42.664;23.242;2023-08-06T01:33:47;92857.00;;;19.36;100.00
61128;BME280;47013;42.664;23.242;2023-08-06T01:36:15;92857.03;;;19.42;100.00
61128;BME280;47013;42.664;23.242;2023-08-06T01:38:42;92863.31;;;19.42;100.00
61128;BME280;47013;42.664;23.242;2023-08-06T01:41:07;92850.00;;;19.35;100.00
61128;BME280;47013;42.664;23.242;2023-08-06T01:43:32;92849.47;;;19.31;100.00
61128;BME280;47013;42.664;23.242;2023-08-06T01:45:58;92867.94;;;19.31;100.00
61128;BME280;47013;42.664;23.242;2023-08-06T01:48:23;92857.13;;;19.22;100.00
61128;BME280;47013;42.664;23.242;2023-08-06T01:50:48;92856.38;;;19.21;100.00
61128;BME280;47013;42.664;23.242;2023-08-06T01:53:14;92867.13;;;19.25;100.00
61128;BME280;47013;42.664;23.242;2023-08-06T01:55:39;92862.78;;;19.12;100.00
61128;BME280;47013;42.664;23.242;2023-08-06T01:58:05;92840.03;;;19.12;100.00
61128;BME280;47013;42.664;23.242;2023-08-06T02:00:30;92834.63;;;18.92;100.00
61128;BME280;47013;42.664;23.242;2023-08-06T02:02:55;92837.03;;;18.84;100.00
61128;BME280;47013;42.664;23.242;2023-08-06T02:05:21;92836.41;;;18.95;100.00
61128;BME280;47013;42.664;23.242;2023-08-06T02:07:46;92836.88;;;18.93;100.00
61128;BME280;47013;42.664;23.242;2023-08-06T02:10:11;92831.19;;;18.97;100.00
61128;BME280;47013;42.664;23.242;2023-08-06T02:12:37;92840.72;;;19.01;100.00
61128;BME280;47013;42.664;23.242;2023-08-06T02:15:06;92847.88;;;18.93;100.00
61128;BME280;47013;42.664;23.242;2023-08-06T02:17:31;92860.66;;;18.50;100.00
61128;BME280;47013;42.664;23.242;2023-08-06T02:19:56;92859.53;;;18.21;100.00
61128;BME280;47013;42.664;23.242;2023-08-06T02:22:22;92874.91;;;18.13;100.00
61128;BME280;47013;42.664;23.242;2023-08-06T02:24:49;92863.59;;;18.26;100.00
61128;BME280;47013;42.664;23.242;2023-08-06T02:27:14;92846.31;;;18.40;100.00
61128;BME280;47013;42.664;23.242;2023-08-06T02:29:40;92832.38;;;18.44;100.00
61128;BME280;47013;42.664;23.242;2023-08-06T02:32:07;92825.16;;;18.46;100.00
61128;BME280;47013;42.664;23.242;2023-08-06T02:34:32;92829.63;;;18.44;100.00
61128;BME280;47013;42.664;23.242;2023-08-06T02:36:57;92853.50;;;18.17;100.00
61128;BME280;47013;42.664;23.242;2023-08-06T02:39:23;92871.47;;;17.98;100.00
61128;BME280;47013;42.664;23.242;2023-08-06T02:41:48;92880.16;;;17.96;100.00
61128;BME280;47013;42.664;23.242;2023-08-06T02:44:13;92867.84;;;18.07;100.00
61128;BME280;47013;42.664;23.242;2023-08-06T02:46:39;92852.53;;;18.20;100.00
61128;BME280;47013;42.664;23.242;2023-08-06T02:49:04;92843.47;;;18.35;100.00
61128;BME280;47013;42.664;23.242;2023-08-06T02:51:31;92835.38;;;18.46;100.00
61128;BME280;47013;42.664;23.242;2023-08-06T02:53:56;92823.28;;;18.58;100.00
61128;BME280;47013;42.664;23.242;2023-08-06T02:56:21;92820.94;;;18.71;100.00
61128;BME280;47013;42.664;23.242;2023-08-06T02:58:47;92834.78;;;18.82;100.00
61128;BME280;47013;42.664;23.242;2023-08-06T03:01:13;92834.03;;;18.82;100.00
61128;BME280;47013;42.664;23.242;2023-08-06T03:03:39;92803.88;;;18.88;100.00
61128;BME280;47013;42.664;23.242;2023-08-06T03:06:04;92762.50;;;18.97;100.00
61128;BME280;47013;42.664;23.242;2023-08-06T03:08:30;92788.84;;;18.83;100.00
61128;BME280;47013;42.664;23.242;2023-08-06T03:10:55;92828.78;;;18.58;100.00
61128;BME280;47013;42.664;23.242;2023-08-06T03:13:21;92830.91;;;18.48;100.00
61128;BME280;47013;42.664;23.242;2023-08-06T03:15:54;92798.94;;;18.45;100.00
61128;BME280;47013;42.664;23.242;2023-08-06T03:18:20;92787.69;;;18.64;100.00
61128;BME280;47013;42.664;23.242;2023-08-06T03:20:46;92795.97;;;18.69;100.00
61128;BME280;47013;42.664;23.242;2023-08-06T03:23:12;92818.53;;;18.79;100.00
61128;BME280;47013;42.664;23.242;2023-08-06T03:25:37;92813.16;;;18.90;100.00
61128;BME280;47013;42.664;23.242;2023-08-06T03:28:02;92798.47;;;18.99;100.00
61128;BME280;47013;42.664;23.242;2023-08-06T03:30:28;92808.78;;;19.04;100.00
61128;BME280;47013;42.664;23.242;2023-08-06T03:32:53;92824.00;;;19.05;100.00
61128;BME280;47013;42.664;23.242;2023-08-06T03:35:18;92826.03;;;19.10;100.00
61128;BME280;47013;42.664;23.242;2023-08-06T03:37:44;92829.59;;;19.16;100.00
61128;BME280;47013;42.664;23.242;2023-08-06T03:40:10;92838.63;;;19.22;100.00
61128;BME280;47013;42.664;23.242;2023-08-06T03:42:35;92848.44;;;19.29;100.00
61128;BME280;47013;42.664;23.242;2023-08-06T03:45:00;92841.44;;;19.28;100.00
61128;BME280;47013;42.664;23.242;2023-08-06T03:47:26;92848.38;;;19.23;100.00
61128;BME280;47013;42.664;23.242;2023-08-06T03:49:51;92858.47;;;19.32;100.00
61128;BME280;47013;42.664;23.242;2023-08-06T03:52:17;92865.47;;;19.33;100.00
61128;BME280;47013;42.664;23.242;2023-08-06T03:54:42;92864.38;;;19.25;100.00
61128;BME280;47013;42.664;23.242;2023-08-06T03:57:08;92855.97;;;19.34;100.00
61128;BME280;47013;42.664;23.242;2023-08-06T03:59:34;92859.44;;;19.29;100.00
61128;BME280;47013;42.664;23.242;2023-08-06T04:01:59;92864.84;;;19.18;100.00
61128;BME280;47013;42.664;23.242;2023-08-06T04:04:25;92861.16;;;19.26;100.00
61128;BME280;47013;42.664;23.242;2023-08-06T04:06:50;92862.38;;;19.25;100.00
61128;BME280;47013;42.664;23.242;2023-08-06T04:09:16;92859.94;;;19.27;100.00
61128;BME280;47013;42.664;23.242;2023-08-06T04:11:41;92865.69;;;19.29;100.00
61128;BME280;47013;42.664;23.242;2023-08-06T04:14:06;92875.69;;;19.32;100.00
61128;BME280;47013;42.664;23.242;2023-08-06T04:16:32;92880.94;;;19.30;100.00
61128;BME280;47013;42.664;23.242;2023-08-06T04:18:57;92871.56;;;19.17;100.00
61128;BME280;47013;42.664;23.242;2023-08-06T04:21:23;92877.63;;;19.26;100.00
61128;BME280;47013;42.664;23.242;2023-08-06T04:23:49;92870.13;;;19.27;100.00
61128;BME280;47013;42.664;23.242;2023-08-06T04:26:14;92869.69;;;19.28;100.00
61128;BME280;47013;42.664;23.242;2023-08-06T04:28:39;92853.41;;;19.25;100.00
61128;BME280;47013;42.664;23.242;2023-08-06T04:31:05;92857.78;;;19.11;100.00
61128;BME280;47013;42.664;23.242;2023-08-06T04:33:30;92858.53;;;19.11;100.00
61128;BME280;47013;42.664;23.242;2023-08-06T04:35:56;92863.38;;;18.96;100.00
61128;BME280;47013;42.664;23.242;2023-08-06T04:38:23;92854.22;;;19.05;100.00
61128;BME280;47013;42.664;23.242;2023-08-06T04:40:50;92849.50;;;19.05;100.00
61128;BME280;47013;42.664;23.242;2023-08-06T04:43:15;92837.75;;;19.05;100.00
61128;BME280;47013;42.664;23.242;2023-08-06T04:45:51;92823.53;;;19.06;100.00
61128;BME280;47013;42.664;23.242;2023-08-06T04:48:17;92805.47;;;19.00;100.00
61128;BME280;47013;42.664;23.242;2023-08-06T04:50:47;92816.94;;;18.98;100.00
61128;BME280;47013;42.664;23.242;2023-08-06T04:53:13;92802.94;;;18.96;100.00
61128;BME280;47013;42.664;23.242;2023-08-06T04:55:38;92797.78;;;19.04;100.00
61128;BME280;47013;42.664;23.242;2023-08-06T04:58:03;92789.31;;;19.07;100.00
61128;BME280;47013;42.664;23.242;2023-08-06T05:00:29;92788.34;;;19.10;100.00
61128;BME280;47013;42.664;23.242;2023-08-06T05:02:54;92788.56;;;19.07;100.00
61128;BME280;47013;42.664;23.242;2023-08-06T05:05:20;92786.72;;;18.98;100.00
61128;BME280;47013;42.664;23.242;2023-08-06T05:07:49;92800.44;;;18.93;100.00
61128;BME280;47013;42.664;23.242;2023-08-06T05:10:14;92803.34;;;18.83;100.00
61128;BME280;47013;42.664;23.242;2023-08-06T05:12:40;92800.59;;;18.83;100.00
61128;BME280;47013;42.664;23.242;2023-08-06T05:15:06;92804.09;;;18.84;100.00
61128;BME280;47013;42.664;23.242;2023-08-06T05:17:31;92800.31;;;18.81;100.00
61128;BME280;47013;42.664;23.242;2023-08-06T05:19:57;92803.72;;;18.97;100.00
61128;BME280;47013;42.664;23.242;2023-08-06T05:22:22;92807.56;;;19.10;100.00
61128;BME280;47013;42.664;23.242;2023-08-06T05:24:47;92818.72;;;19.27;100.00
61128;BME280;47013;42.664;23.242;2023-08-06T05:27:13;92808.06;;;19.40;100.00
61128;BME280;47013;42.664;23.242;2023-08-06T05:29:38;92797.09;;;19.46;100.00
61128;BME280;47013;42.664;23.242;2023-08-06T05:32:04;92801.19;;;19.56;100.00
61128;BME280;47013;42.664;23.242;2023-08-06T05:34:29;92802.19;;;19.59;100.00
61128;BME280;47013;42.664;23.242;2023-08-06T05:36:55;92794.47;;;19.63;100.00
61128;BME280;47013;42.664;23.242;2023-08-06T05:39:20;92791.78;;;19.68;100.00
61128;BME280;47013;42.664;23.242;2023-08-06T05:41:46;92786.09;;;19.46;100.00
61128;BME280;47013;42.664;23.242;2023-08-06T05:44:11;92793.13;;;19.53;100.00
61128;BME280;47013;42.664;23.242;2023-08-06T05:46:36;92801.53;;;19.69;100.00
61128;BME280;47013;42.664;23.242;2023-08-06T05:49:02;92807.84;;;19.81;100.00
61128;BME280;47013;42.664;23.242;2023-08-06T05:51:27;92803.63;;;19.91;100.00
61128;BME280;47013;42.664;23.242;2023-08-06T05:53:53;92809.41;;;19.93;100.00
61128;BME280;47013;42.664;23.242;2023-08-06T05:56:18;92808.97;;;20.06;100.00
61128;BME280;47013;42.664;23.242;2023-08-06T05:58:44;92808.16;;;19.94;100.00
61128;BME280;47013;42.664;23.242;2023-08-06T06:01:11;92811.66;;;19.95;100.00
61128;BME280;47013;42.664;23.242;2023-08-06T06:03:37;92819.84;;;19.84;100.00
61128;BME280;47013;42.664;23.242;2023-08-06T06:06:02;92818.84;;;19.81;100.00
61128;BME280;47013;42.664;23.242;2023-08-06T06:08:28;92830.75;;;20.10;100.00
61128;BME280;47013;42.664;23.242;2023-08-06T06:10:54;92836.31;;;20.26;100.00
61128;BME280;47013;42.664;23.242;2023-08-06T06:13:19;92831.59;;;20.32;100.00
61128;BME280;47013;42.664;23.242;2023-08-06T06:15:46;92827.69;;;20.56;100.00
61128;BME280;47013;42.664;23.242;2023-08-06T06:18:13;92842.00;;;20.71;100.00
61128;BME280;47013;42.664;23.242;2023-08-06T06:20:38;92841.47;;;20.67;99.86
61128;BME280;47013;42.664;23.242;2023-08-06T06:23:03;92850.75;;;20.64;100.00
61128;BME280;47013;42.664;23.242;2023-08-06T06:25:29;92858.00;;;20.67;100.00
61128;BME280;47013;42.664;23.242;2023-08-06T06:27:54;92860.00;;;20.67;100.00
61128;BME280;47013;42.664;23.242;2023-08-06T06:30:20;92860.31;;;20.80;100.00
61128;BME280;47013;42.664;23.242;2023-08-06T06:32:45;92866.59;;;20.91;100.00
61128;BME280;47013;42.664;23.242;2023-08-06T06:35:10;92864.63;;;20.98;100.00
61128;BME280;47013;42.664;23.242;2023-08-06T06:37:36;92876.38;;;20.98;96.24
61128;BME280;47013;42.664;23.242;2023-08-06T06:40:02;92881.91;;;20.98;98.17
61128;BME280;47013;42.664;23.242;2023-08-06T06:42:28;92893.16;;;20.89;98.87
61128;BME280;47013;42.664;23.242;2023-08-06T06:44:54;92891.84;;;20.79;96.99
61128;BME280;47013;42.664;23.242;2023-08-06T06:47:19;92898.38;;;20.76;95.40
61128;BME280;47013;42.664;23.242;2023-08-06T06:49:44;92894.34;;;20.77;94.16
61128;BME280;47013;42.664;23.242;2023-08-06T06:52:10;92898.41;;;20.87;94.45
61128;BME280;47013;42.664;23.242;2023-08-06T06:54:36;92891.91;;;20.96;94.89
61128;BME280;47013;42.664;23.242;2023-08-06T06:57:04;92898.94;;;21.02;94.11
61128;BME280;47013;42.664;23.242;2023-08-06T06:59:31;92903.94;;;21.04;90.45
61128;BME280;47013;42.664;23.242;2023-08-06T07:01:57;92918.97;;;21.08;88.17
61128;BME280;47013;42.664;23.242;2023-08-06T07:04:23;92924.00;;;21.04;87.80
61128;BME280;47013;42.664;23.242;2023-08-06T07:06:48;92929.78;;;21.12;90.96
61128;BME280;47013;42.664;23.242;2023-08-06T07:09:13;92919.50;;;21.18;90.58
61128;BME280;47013;42.664;23.242;2023-08-06T07:11:39;92936.88;;;21.41;88.58
61128;BME280;47013;42.664;23.242;2023-08-06T07:14:04;92925.13;;;21.52;86.68
61128;BME280;47013;42.664;23.242;2023-08-06T07:16:29;92921.13;;;21.75;83.97
61128;BME280;47013;42.664;23.242;2023-08-06T07:18:55;92938.38;;;21.42;87.71
61128;BME280;47013;42.664;23.242;2023-08-06T07:21:21;92931.88;;;21.56;83.54
61128;BME280;47013;42.664;23.242;2023-08-06T07:23:46;92930.88;;;21.70;84.62
61128;BME280;47013;42.664;23.242;2023-08-06T07:26:11;92942.41;;;21.86;84.04
61128;BME280;47013;42.664;23.242;2023-08-06T07:28:37;92932.41;;;21.88;83.77
61128;BME280;47013;42.664;23.242;2023-08-06T07:31:03;92932.16;;;22.14;83.30
61128;BME280;47013;42.664;23.242;2023-08-06T07:33:29;92944.66;;;22.43;79.60
61128;BME280;47013;42.664;23.242;2023-08-06T07:35:54;92935.81;;;22.67;79.03
61128;BME280;47013;42.664;23.242;2023-08-06T07:38:20;92939.63;;;22.53;76.20
61128;BME280;47013;42.664;23.242;2023-08-06T07:40:46;92928.56;;;22.47;78.65
61128;BME280;47013;42.664;23.242;2023-08-06T07:43:11;92937.81;;;22.66;79.67
61128;BME280;47013;42.664;23.242;2023-08-06T07:45:37;92936.00;;;22.75;78.03
61128;BME280;47013;42.664;23.242;2023-08-06T07:48:03;92930.72;;;22.77;77.89
61128;BME280;47013;42.664;23.242;2023-08-06T07:50:29;92925.81;;;22.47;78.20
61128;BME280;47013;42.664;23.242;2023-08-06T07:52:54;92933.16;;;21.94;77.40
61128;BME280;47013;42.664;23.242;2023-08-06T07:55:20;92926.59;;;21.97;79.58
61128;BME280;47013;42.664;23.242;2023-08-06T07:57:45;92929.13;;;22.23;77.96
61128;BME280;47013;42.664;23.242;2023-08-06T08:00:11;92932.63;;;22.41;78.87
61128;BME280;47013;42.664;23.242;2023-08-06T08:02:36;92918.91;;;22.76;77.13
61128;BME280;47013;42.664;23.242;2023-08-06T08:05:01;92922.09;;;23.03;73.75
61128;BME280;47013;42.664;23.242;2023-08-06T08:07:27;92922.03;;;23.14;75.96
61128;BME280;47013;42.664;23.242;2023-08-06T08:09:55;92920.88;;;22.98;73.29
61128;BME280;47013;42.664;23.242;2023-08-06T08:12:21;92920.22;;;22.70;72.16
61128;BME280;47013;42.664;23.242;2023-08-06T08:14:46;92917.53;;;22.42;72.90
61128;BME280;47013;42.664;23.242;2023-08-06T08:17:11;92930.84;;;22.37;73.91
61128;BME280;47013;42.664;23.242;2023-08-06T08:19:37;92924.34;;;22.24;72.64
61128;BME280;47013;42.664;23.242;2023-08-06T08:22:02;92922.78;;;22.51;73.63
61128;BME280;47013;42.664;23.242;2023-08-06T08:24:29;92922.31;;;22.41;75.92
61128;BME280;47013;42.664;23.242;2023-08-06T08:26:56;92918.69;;;22.80;75.57
61128;BME280;47013;42.664;23.242;2023-08-06T08:29:22;92916.91;;;22.77;73.58
61128;BME280;47013;42.664;23.242;2023-08-06T08:31:48;92912.13;;;22.88;70.86
61128;BME280;47013;42.664;23.242;2023-08-06T08:34:18;92918.00;;;23.20;71.36
61128;BME280;47013;42.664;23.242;2023-08-06T08:36:44;92919.59;;;23.46;67.70
61128;BME280;47013;42.664;23.242;2023-08-06T08:39:12;92914.72;;;23.63;68.12
61128;BME280;47013;42.664;23.242;2023-08-06T08:41:38;92919.75;;;23.95;68.43
61128;BME280;47013;42.664;23.242;2023-08-06T08:44:08;92917.59;;;24.12;66.28
61128;BME280;47013;42.664;23.242;2023-08-06T08:46:36;92902.03;;;24.09;66.67
61128;BME280;47013;42.664;23.242;2023-08-06T08:49:03;92901.69;;;23.88;66.77
61128;BME280;47013;42.664;23.242;2023-08-06T08:51:29;92897.13;;;23.91;66.93
61128;BME280;47013;42.664;23.242;2023-08-06T08:53:56;92903.75;;;23.82;64.41
61128;BME280;47013;42.664;23.242;2023-08-06T08:56:22;92900.22;;;23.81;67.24
61128;BME280;47013;42.664;23.242;2023-08-06T08:58:48;92900.03;;;24.04;64.43
61128;BME280;47013;42.664;23.242;2023-08-06T09:01:15;92895.34;;;24.23;63.60
61128;BME280;47013;42.664;23.242;2023-08-06T09:03:41;92899.56;;;24.54;64.50
61128;BME280;47013;42.664;23.242;2023-08-06T09:06:10;92895.34;;;24.48;61.94
61128;BME280;47013;42.664;23.242;2023-08-06T09:08:41;92888.75;;;24.75;62.65
61128;BME280;47013;42.664;23.242;2023-08-06T09:11:09;92884.78;;;24.89;61.79
61128;BME280;47013;42.664;23.242;2023-08-06T09:13:37;92890.81;;;25.12;60.82
61128;BME280;47013;42.664;23.242;2023-08-06T09:16:03;92896.22;;;25.23;59.23
61128;BME280;47013;42.664;23.242;2023-08-06T09:18:29;92882.19;;;25.35;58.12
61128;BME280;47013;42.664;23.242;2023-08-06T09:20:55;92885.59;;;24.84;59.48
61128;BME280;47013;42.664;23.242;2023-08-06T09:23:27;92883.09;;;25.24;59.79
61128;BME280;47013;42.664;23.242;2023-08-06T09:25:55;92882.41;;;25.37;57.51
61128;BME280;47013;42.664;23.242;2023-08-06T09:28:20;92886.50;;;25.68;53.25
61128;BME280;47013;42.664;23.242;2023-08-06T09:30:47;92889.56;;;25.64;53.21
61128;BME280;47013;42.664;23.242;2023-08-06T09:33:18;92888.06;;;25.82;52.49
61128;BME280;47013;42.664;23.242;2023-08-06T09:35:45;92874.56;;;26.05;55.19
61128;BME280;47013;42.664;23.242;2023-08-06T09:38:11;92876.66;;;26.44;52.24
61128;BME280;47013;42.664;23.242;2023-08-06T09:40:38;92872.69;;;26.53;47.86
61128;BME280;47013;42.664;23.242;2023-08-06T09:43:03;92867.56;;;26.70;50.01
61128;BME280;47013;42.664;23.242;2023-08-06T09:45:35;92869.47;;;26.75;51.61
61128;BME280;47013;42.664;23.242;2023-08-06T09:48:08;92875.69;;;26.41;49.26
61128;BME280;47013;42.664;23.242;2023-08-06T09:50:35;92876.66;;;26.44;48.14
61128;BME280;47013;42.664;23.242;2023-08-06T09:53:05;92874.72;;;26.39;48.28
61128;BME280;47013;42.664;23.242;2023-08-06T09:55:32;92876.19;;;26.27;47.30
61128;BME280;47013;42.664;23.242;2023-08-06T09:57:58;92878.09;;;26.19;48.58
61128;BME280;47013;42.664;23.242;2023-08-06T10:00:24;92872.97;;;25.77;50.45
61128;BME280;47013;42.664;23.242;2023-08-06T10:02:50;92887.16;;;25.74;50.75
61128;BME280;47013;42.664;23.242;2023-08-06T10:05:19;92888.59;;;25.62;51.49
61128;BME280;47013;42.664;23.242;2023-08-06T10:07:46;92889.44;;;25.56;52.82
61128;BME280;47013;42.664;23.242;2023-08-06T10:10:12;92881.66;;;25.55;52.22
61128;BME280;47013;42.664;23.242;2023-08-06T10:12:40;92883.03;;;25.62;53.67
61128;BME280;47013;42.664;23.242;2023-08-06T10:15:10;92888.03;;;25.69;54.16
61128;BME280;47013;42.664;23.242;2023-08-06T10:17:36;92881.41;;;25.72;52.67
61128;BME280;47013;42.664;23.242;2023-08-06T10:20:05;92891.00;;;25.71;49.72
61128;BME280;47013;42.664;23.242;2023-08-06T10:22:33;92884.63;;;25.57;51.14
61128;BME280;47013;42.664;23.242;2023-08-06T10:24:59;92890.09;;;25.63;50.79
61128;BME280;47013;42.664;23.242;2023-08-06T10:33:00;92900.84;;;25.34;49.53
61128;BME280;47013;42.664;23.242;2023-08-06T10:35:45;92896.75;;;25.22;50.58
61128;BME280;47013;42.664;23.242;2023-08-06T10:38:22;92894.09;;;24.92;50.59
61128;BME280;47013;42.664;23.242;2023-08-06T10:43:33;92909.88;;;24.29;51.84
61128;BME280;47013;42.664;23.242;2023-08-06T10:46:00;92909.75;;;24.16;53.83
61128;BME280;47013;42.664;23.242;2023-08-06T10:50:59;92917.81;;;24.44;54.73
61128;BME280;47013;42.664;23.242;2023-08-06T10:53:25;92917.13;;;24.38;54.85
61128;BME280;47013;42.664;23.242;2023-08-06T10:55:51;92921.28;;;24.50;56.82
61128;BME280;47013;42.664;23.242;2023-08-06T10:58:16;92915.78;;;24.45;54.08
61128;BME280;47013;42.664;23.242;2023-08-06T11:00:42;92927.72;;;24.34;55.07
61128;BME280;47013;42.664;23.242;2023-08-06T11:03:08;92925.44;;;24.38;56.49
61128;BME280;47013;42.664;23.242;2023-08-06T11:05:34;92926.19;;;24.38;54.32
61128;BME280;47013;42.664;23.242;2023-08-06T11:08:00;92935.53;;;24.35;57.56
61128;BME280;47013;42.664;23.242;2023-08-06T11:10:26;92929.56;;;24.26;58.04
61128;BME280;47013;42.664;23.242;2023-08-06T11:12:51;92933.72;;;24.08;60.75
61128;BME280;47013;42.664;23.242;2023-08-06T11:15:16;92942.03;;;23.78;66.49
61128;BME280;47013;42.664;23.242;2023-08-06T11:17:42;92955.13;;;23.31;73.97
61128;BME280;47013;42.664;23.242;2023-08-06T11:20:08;92934.66;;;23.09;78.57
61128;BME280;47013;42.664;23.242;2023-08-06T11:22:36;92944.25;;;22.97;83.25
61128;BME280;47013;42.664;23.242;2023-08-06T11:25:01;92946.59;;;22.71;81.18
61128;BME280;47013;42.664;23.242;2023-08-06T11:27:27;92956.44;;;22.55;85.25
61128;BME280;47013;42.664;23.242;2023-08-06T11:29:54;92947.13;;;22.58;86.93
61128;BME280;47013;42.664;23.242;2023-08-06T11:32:19;92941.13;;;22.54;86.63
61128;BME280;47013;42.664;23.242;2023-08-06T11:34:45;92937.09;;;22.49;90.21
61128;BME280;47013;42.664;23.242;2023-08-06T11:37:10;92942.38;;;22.47;91.96
61128;BME280;47013;42.664;23.242;2023-08-06T11:39:37;92940.16;;;22.40;80.26
61128;BME280;47013;42.664;23.242;2023-08-06T11:42:03;92943.88;;;22.48;90.16
61128;BME280;47013;42.664;23.242;2023-08-06T11:44:30;92936.34;;;22.49;85.71
61128;BME280;47013;42.664;23.242;2023-08-06T11:47:01;92923.75;;;22.59;84.71
61128;BME280;47013;42.664;23.242;2023-08-06T11:49:41;92913.06;;;23.02;83.47
61128;BME280;47013;42.664;23.242;2023-08-06T11:54:37;92917.34;;;23.80;81.42
61128;BME280;47013;42.664;23.242;2023-08-06T11:57:05;92917.81;;;24.14;77.82
61128;BME280;47013;42.664;23.242;2023-08-06T11:59:30;92920.00;;;24.51;75.05
61128;BME280;47013;42.664;23.242;2023-08-06T12:01:55;92911.81;;;24.64;73.29
61128;BME280;47013;42.664;23.242;2023-08-06T12:04:21;92912.41;;;25.01;66.87
61128;BME280;47013;42.664;23.242;2023-08-06T12:06:46;92902.06;;;25.20;69.12
61128;BME280;47013;42.664;23.242;2023-08-06T12:09:12;92915.78;;;25.31;70.68
61128;BME280;47013;42.664;23.242;2023-08-06T12:11:37;92905.34;;;25.37;66.58
61128;BME280;47013;42.664;23.242;2023-08-06T12:14:02;92912.66;;;25.40;71.51
61128;BME280;47013;42.664;23.242;2023-08-06T12:16:28;92906.28;;;25.26;61.50
61128;BME280;47013;42.664;23.242;2023-08-06T12:18:53;92910.31;;;25.25;64.89
61128;BME280;47013;42.664;23.242;2023-08-06T12:21:18;92905.28;;;25.24;67.42
61128;BME280;47013;42.664;23.242;2023-08-06T12:23:44;92905.16;;;25.16;64.75
61128;BME280;47013;42.664;23.242;2023-08-06T12:26:09;92906.44;;;25.15;65.40
61128;BME280;47013;42.664;23.242;2023-08-06T12:28:35;92906.69;;;25.12;68.08
61128;BME280;47013;42.664;23.242;2023-08-06T12:31:00;92911.06;;;25.07;67.61
61128;BME280;47013;42.664;23.242;2023-08-06T12:33:26;92908.84;;;25.00;66.98
61128;BME280;47013;42.664;23.242;2023-08-06T12:35:51;92915.94;;;25.01;60.08
61128;BME280;47013;42.664;23.242;2023-08-06T12:38:20;92915.97;;;24.95;59.23
61128;BME280;47013;42.664;23.242;2023-08-06T12:40:45;92913.38;;;25.03;67.15
61128;BME280;47013;42.664;23.242;2023-08-06T12:43:10;92903.81;;;24.98;63.28
61128;BME280;47013;42.664;23.242;2023-08-06T12:45:36;92898.56;;;25.01;66.54
61128;BME280;47013;42.664;23.242;2023-08-06T12:48:02;92902.53;;;24.99;66.68
61128;BME280;47013;42.664;23.242;2023-08-06T12:50:28;92904.31;;;25.03;67.14
61128;BME280;47013;42.664;23.242;2023-08-06T12:52:53;92902.81;;;25.02;63.30
61128;BME280;47013;42.664;23.242;2023-08-06T12:55:19;92907.84;;;25.03;61.20
61128;BME280;47013;42.664;23.242;2023-08-06T12:57:44;92900.06;;;24.96;61.01
61128;BME280;47013;42.664;23.242;2023-08-06T13:00:10;92900.53;;;25.00;64.80
61128;BME280;47013;42.664;23.242;2023-08-06T13:02:35;92894.09;;;24.92;59.69
61128;BME280;47013;42.664;23.242;2023-08-06T13:05:01;92895.66;;;24.87;59.75